createdAt,value
2023-04-17T00:00:01.932Z,97536.00
2023-04-17T00:02:04.573Z,97538.63
2023-04-17T00:04:10.713Z,97535.19
2023-04-17T00:06:14.183Z,97543.78
2023-04-17T00:08:16.753Z,97541.28
2023-04-17T00:10:21.429Z,97537.81
2023-04-17T00:12:23.962Z,97535.25
2023-04-17T00:14:26.679Z,97543.94
2023-04-17T00:16:29.245Z,97539.63
2023-04-17T00:18:31.831Z,97534.44
2023-04-17T00:20:34.357Z,97540.50
2023-04-17T00:22:36.998Z,97533.63
2023-04-17T00:24:39.499Z,97534.44
2023-04-17T00:26:43.464Z,97532.72
2023-04-17T00:28:47.323Z,97531.84
2023-04-17T00:30:49.916Z,97536.16
2023-04-17T00:32:52.623Z,97528.41
2023-04-17T00:34:55.887Z,97526.72
2023-04-17T00:36:59.188Z,97535.44
2023-04-17T00:39:01.786Z,97522.41
2023-04-17T00:41:04.379Z,97527.63
2023-04-17T00:43:08.417Z,97529.34
2023-04-17T00:45:11.391Z,97525.03
2023-04-17T00:47:14.430Z,97524.09
2023-04-17T00:49:17.121Z,97526.72
2023-04-17T00:51:19.804Z,97521.63
2023-04-17T00:53:22.769Z,97519.03
2023-04-17T00:55:25.525Z,97519.88
2023-04-17T00:57:28.177Z,97513.78
2023-04-17T00:59:33.457Z,97510.34
2023-04-17T01:01:36.050Z,97523.31
2023-04-17T01:03:41.891Z,97510.31
2023-04-17T01:05:45.466Z,97519.03
2023-04-17T01:07:48.048Z,97521.63
2023-04-17T01:09:50.679Z,97518.16
2023-04-17T01:11:53.253Z,97512.16
2023-04-17T01:13:55.904Z,97511.25
2023-04-17T01:15:59.791Z,97514.69
2023-04-17T01:18:02.891Z,97512.91
2023-04-17T01:20:07.819Z,97512.09
2023-04-17T01:22:10.384Z,97510.34
2023-04-17T01:24:14.264Z,97508.72
2023-04-17T01:26:18.719Z,97505.16
2023-04-17T01:28:21.256Z,97512.13
2023-04-17T01:30:24.029Z,97513.88
2023-04-17T01:32:27.029Z,97508.75
2023-04-17T01:34:29.608Z,97510.53
2023-04-17T01:36:32.199Z,97513.97
2023-04-17T01:38:34.710Z,97519.13
2023-04-17T01:40:38.582Z,97512.13
2023-04-17T01:42:41.230Z,97516.41
2023-04-17T01:44:43.807Z,97511.31
2023-04-17T01:46:46.365Z,97515.66
2023-04-17T01:48:48.969Z,97511.31
2023-04-17T01:50:51.701Z,97516.47
2023-04-17T01:52:54.326Z,97513.88
2023-04-17T01:54:56.866Z,97516.41
2023-04-17T01:57:01.263Z,97518.09
2023-04-17T01:59:03.837Z,97516.47
2023-04-17T02:01:06.974Z,97508.66
2023-04-17T02:03:09.743Z,97512.16
2023-04-17T02:05:12.433Z,97513.97
2023-04-17T02:07:14.944Z,97511.31
2023-04-17T02:09:17.504Z,97509.59
2023-04-17T02:11:20.087Z,97508.75
2023-04-17T02:13:23.953Z,97513.09
2023-04-17T02:15:27.086Z,97507.91
2023-04-17T02:17:29.689Z,97503.50
2023-04-17T02:19:32.253Z,97500.13
2023-04-17T02:21:34.771Z,97507.91
2023-04-17T02:23:37.359Z,97507.91
2023-04-17T02:25:39.941Z,97503.56
2023-04-17T02:27:42.637Z,97502.75
2023-04-17T02:29:46.502Z,97502.69
2023-04-17T02:31:49.191Z,97501.78
2023-04-17T02:33:51.787Z,97510.50
2023-04-17T02:35:54.335Z,97506.22
2023-04-17T02:37:57.041Z,97505.34
2023-04-17T02:39:59.603Z,97505.28
2023-04-17T02:42:03.030Z,97505.34
2023-04-17T02:44:05.902Z,97505.25
2023-04-17T02:46:09.800Z,97504.47
2023-04-17T02:48:12.363Z,97507.13
2023-04-17T02:50:14.904Z,97508.00
2023-04-17T02:52:17.477Z,97501.06
2023-04-17T02:54:20.592Z,97505.44
2023-04-17T02:56:23.126Z,97508.03
2023-04-17T02:58:25.669Z,97503.72
2023-04-17T03:00:28.492Z,97508.03
2023-04-17T03:02:32.504Z,97502.84
2023-04-17T03:04:35.645Z,97504.47
2023-04-17T03:06:38.211Z,97509.69
2023-04-17T03:08:40.784Z,97504.47
2023-04-17T03:10:43.447Z,97502.78
2023-04-17T03:12:46.013Z,97502.78
2023-04-17T03:14:48.556Z,97503.63
2023-04-17T03:16:53.170Z,97501.91
2023-04-17T03:18:57.057Z,97502.78
2023-04-17T03:20:59.623Z,97506.25
2023-04-17T03:23:02.172Z,97509.72
2023-04-17T03:25:05.016Z,97506.25
2023-04-17T03:27:07.579Z,97508.88
2023-04-17T03:29:10.292Z,97506.25
2023-04-17T03:31:12.941Z,97508.03
2023-04-17T03:33:16.229Z,97510.59
2023-04-17T03:35:20.157Z,97502.78
2023-04-17T03:37:22.707Z,97509.72
2023-04-17T03:39:25.350Z,97508.00
2023-04-17T03:41:27.919Z,97514.06
2023-04-17T03:43:30.471Z,97518.38
2023-04-17T03:45:33.141Z,97514.97
2023-04-17T03:47:35.727Z,97515.84
2023-04-17T03:49:38.269Z,97516.66
2023-04-17T03:51:43.541Z,97511.47
2023-04-17T03:53:46.066Z,97517.53
2023-04-17T03:55:48.629Z,97524.47
2023-04-17T03:57:51.974Z,97516.66
2023-04-17T03:59:54.556Z,97527.06
2023-04-17T04:01:57.393Z,97528.00
2023-04-17T04:04:00.276Z,97524.56
2023-04-17T04:06:02.946Z,97523.66
2023-04-17T04:08:07.016Z,97528.84
2023-04-17T04:10:10.296Z,97533.22
2023-04-17T04:12:12.822Z,97529.75
2023-04-17T04:14:15.752Z,97532.41
2023-04-17T04:16:18.404Z,97536.75
2023-04-17T04:18:21.020Z,97531.53
2023-04-17T04:20:23.643Z,97536.81
2023-04-17T04:22:26.277Z,97541.97
2023-04-17T04:24:30.435Z,97533.28
2023-04-17T04:26:33.322Z,97538.53
2023-04-17T04:28:35.910Z,97534.19
2023-04-17T04:30:38.961Z,97541.16
2023-04-17T04:32:41.619Z,97533.31
2023-04-17T04:34:45.287Z,97535.03
2023-04-17T04:36:50.787Z,97537.66
2023-04-17T04:38:53.313Z,97541.06
2023-04-17T04:41:01.319Z,97535.03
2023-04-17T04:43:04.302Z,97541.06
2023-04-17T04:45:07.909Z,97536.78
2023-04-17T04:47:10.455Z,97537.69
2023-04-17T04:49:13.591Z,97538.56
2023-04-17T04:51:16.400Z,97540.31
2023-04-17T04:53:19.012Z,97536.88
2023-04-17T04:55:21.822Z,97535.09
2023-04-17T04:57:25.833Z,97552.47
2023-04-17T04:59:28.374Z,97545.53
2023-04-17T05:01:31.078Z,97545.50
2023-04-17T05:03:33.926Z,97547.28
2023-04-17T05:05:37.732Z,97555.03
2023-04-17T05:07:40.304Z,97550.66
2023-04-17T05:09:43.273Z,97552.38
2023-04-17T05:11:45.826Z,97555.88
2023-04-17T05:13:49.690Z,97554.13
2023-04-17T05:15:52.342Z,97555.91
2023-04-17T05:17:54.933Z,97549.78
2023-04-17T05:19:57.554Z,97553.31
2023-04-17T05:22:00.115Z,97553.31
2023-04-17T05:24:02.733Z,97555.06
2023-04-17T05:26:05.788Z,97560.19
2023-04-17T05:28:08.704Z,97555.84
2023-04-17T05:30:13.953Z,97556.69
2023-04-17T05:32:16.470Z,97561.91
2023-04-17T05:34:19.002Z,97561.03
2023-04-17T05:36:22.276Z,97561.88
2023-04-17T05:38:24.817Z,97565.34
2023-04-17T05:40:27.344Z,97561.03
2023-04-17T05:42:29.916Z,97565.34
2023-04-17T05:44:32.491Z,97565.34
2023-04-17T05:46:36.352Z,97565.34
2023-04-17T05:48:38.917Z,97562.75
2023-04-17T05:50:41.792Z,97565.34
2023-04-17T05:52:44.367Z,97568.84
2023-04-17T05:54:46.887Z,97574.00
2023-04-17T05:56:50.042Z,97567.94
2023-04-17T05:58:52.589Z,97563.59
2023-04-17T06:00:56.816Z,97568.81
2023-04-17T06:03:01.372Z,97566.28
2023-04-17T06:05:04.562Z,97567.06
2023-04-17T06:07:08.146Z,97571.44
2023-04-17T06:09:11.453Z,97572.28
2023-04-17T06:11:15.718Z,97567.03
2023-04-17T06:13:18.280Z,97572.22
2023-04-17T06:15:21.238Z,97572.13
2023-04-17T06:17:24.071Z,97577.28
2023-04-17T06:19:27.959Z,97574.75
2023-04-17T06:21:31.457Z,97579.97
2023-04-17T06:23:34.128Z,97583.41
2023-04-17T06:25:36.703Z,97586.00
2023-04-17T06:27:39.253Z,97578.19
2023-04-17T06:29:44.561Z,97579.94
2023-04-17T06:31:47.114Z,97584.28
2023-04-17T06:33:50.840Z,97586.03
2023-04-17T06:35:54.846Z,97586.88
2023-04-17T06:37:57.463Z,97587.75
2023-04-17T06:40:00.005Z,97582.50
2023-04-17T06:42:02.980Z,97585.13
2023-04-17T06:44:05.795Z,97586.78
2023-04-17T06:46:08.356Z,97587.63
2023-04-17T06:48:11.466Z,97590.22
2023-04-17T06:50:14.076Z,97586.78
2023-04-17T06:52:20.098Z,97593.69
2023-04-17T06:54:22.674Z,97589.38
2023-04-17T06:56:25.347Z,97592.81
2023-04-17T06:58:27.924Z,97596.22
2023-04-17T07:00:30.477Z,97590.06
2023-04-17T07:02:33.259Z,97596.13
2023-04-17T07:04:36.153Z,97589.16
2023-04-17T07:06:39.542Z,97597.88
2023-04-17T07:08:43.430Z,97594.41
2023-04-17T07:10:46.005Z,97602.34
2023-04-17T07:12:48.614Z,97596.16
2023-04-17T07:14:51.251Z,97604.03
2023-04-17T07:16:53.868Z,97603.94
2023-04-17T07:18:56.439Z,97604.94
2023-04-17T07:20:59.098Z,97606.59
2023-04-17T07:23:01.661Z,97604.03
2023-04-17T07:25:06.534Z,97606.53
2023-04-17T07:27:09.104Z,97610.91
2023-04-17T07:29:11.980Z,97610.97
2023-04-17T07:31:14.968Z,97612.78
2023-04-17T07:33:17.593Z,97611.88
2023-04-17T07:35:20.159Z,97611.88
2023-04-17T07:37:22.686Z,97612.69
2023-04-17T07:39:26.833Z,97608.38
2023-04-17T07:41:30.738Z,97609.25
2023-04-17T07:43:33.278Z,97612.69
2023-04-17T07:45:37.587Z,97611.84
2023-04-17T07:47:41.218Z,97615.25
2023-04-17T07:49:48.629Z,97617.03
2023-04-17T07:51:51.219Z,97616.13
2023-04-17T07:53:53.932Z,97616.19
2023-04-17T07:55:58.213Z,97618.78
2023-04-17T07:58:03.836Z,97622.16
2023-04-17T08:00:09.180Z,97622.06
2023-04-17T08:02:12.159Z,97620.34
2023-04-17T08:04:15.181Z,97622.94
2023-04-17T08:06:18.085Z,97621.25
2023-04-17T08:08:22.684Z,97617.78
2023-04-17T08:10:25.227Z,97619.50
2023-04-17T08:12:27.933Z,97625.50
2023-04-17T08:14:31.899Z,97625.56
2023-04-17T08:16:34.500Z,97628.09
2023-04-17T08:18:37.802Z,97630.69
2023-04-17T08:20:40.995Z,97632.47
2023-04-17T08:22:44.719Z,97629.84
2023-04-17T08:24:47.356Z,97635.03
2023-04-17T08:26:50.082Z,97636.66
2023-04-17T08:28:53.665Z,97637.50
2023-04-17T08:30:57.681Z,97634.13
2023-04-17T08:33:00.376Z,97635.84
2023-04-17T08:35:02.947Z,97634.97
2023-04-17T08:37:06.156Z,97641.03
2023-04-17T08:39:09.989Z,97642.75
2023-04-17T08:41:14.333Z,97641.88
2023-04-17T08:43:19.593Z,97632.34
2023-04-17T08:45:24.920Z,97643.59
2023-04-17T08:47:29.547Z,97641.88
2023-04-17T08:49:35.311Z,97644.28
2023-04-17T08:51:37.896Z,97640.78
2023-04-17T08:53:40.649Z,97641.69
2023-04-17T08:55:44.110Z,97645.97
2023-04-17T08:57:57.088Z,97645.97
2023-04-17T09:00:00.257Z,97649.41
2023-04-17T09:02:04.561Z,97645.06
2023-04-17T09:04:08.883Z,97640.59
2023-04-17T09:06:12.138Z,97654.50
2023-04-17T09:08:16.869Z,97646.69
2023-04-17T09:10:19.439Z,97649.34
2023-04-17T09:12:23.281Z,97650.13
2023-04-17T09:14:31.471Z,97644.00
2023-04-17T09:16:35.119Z,97644.06
2023-04-17T09:18:39.255Z,97642.28
2023-04-17T09:20:51.755Z,97650.00
2023-04-17T09:23:02.410Z,97647.38
2023-04-17T09:25:05.840Z,97652.56
2023-04-17T09:27:21.326Z,97651.72
2023-04-17T09:29:23.886Z,97646.47
2023-04-17T09:31:30.331Z,97648.25
2023-04-17T09:33:33.119Z,97654.34
2023-04-17T09:35:39.884Z,97649.09
2023-04-17T09:37:51.652Z,97651.72
2023-04-17T09:39:59.320Z,97651.63
2023-04-17T09:42:06.172Z,97653.41
2023-04-17T09:44:10.013Z,97653.38
2023-04-17T09:46:14.274Z,97654.25
2023-04-17T09:48:17.492Z,97653.38
2023-04-17T09:50:22.494Z,97661.13
2023-04-17T09:52:25.497Z,97651.50
2023-04-17T09:54:31.617Z,97660.00
2023-04-17T09:56:35.318Z,97653.97
2023-04-17T09:58:39.194Z,97654.81
2023-04-17T10:00:42.645Z,97661.81
2023-04-17T10:02:45.865Z,97655.59
2023-04-17T10:04:48.795Z,97655.63
2023-04-17T10:06:51.379Z,97655.69
2023-04-17T10:08:54.465Z,97657.38
2023-04-17T10:11:07.102Z,97652.09
2023-04-17T10:13:12.523Z,97652.09
2023-04-17T10:15:16.528Z,97653.56
2023-04-17T10:17:28.521Z,97650.19
2023-04-17T10:19:32.842Z,97654.41
2023-04-17T10:21:35.382Z,97651.69
2023-04-17T10:23:38.549Z,97648.22
2023-04-17T10:25:41.256Z,97643.81
2023-04-17T10:27:46.555Z,97643.75
2023-04-17T10:29:56.290Z,97645.41
2023-04-17T10:32:15.353Z,97636.53
2023-04-17T10:34:35.868Z,97633.00
2023-04-17T10:36:50.796Z,97638.81
2023-04-17T10:38:53.380Z,97633.59
2023-04-17T10:40:55.947Z,97627.41
2023-04-17T10:43:08.535Z,97628.78
2023-04-17T10:45:20.211Z,97628.56
2023-04-17T10:47:23.260Z,97618.91
2023-04-17T10:49:25.929Z,97628.34
2023-04-17T10:51:42.129Z,97627.53
2023-04-17T10:53:45.701Z,97625.69
2023-04-17T10:55:50.556Z,97621.47
2023-04-17T10:57:58.721Z,97617.09
2023-04-17T11:00:14.685Z,97618.00
2023-04-17T11:02:17.698Z,97621.47
2023-04-17T11:04:21.904Z,97616.19
2023-04-17T11:06:28.717Z,97609.25
2023-04-17T11:08:31.367Z,97614.25
2023-04-17T11:10:36.786Z,97609.91
2023-04-17T11:12:39.348Z,97615.09
2023-04-17T11:14:43.060Z,97612.50
2023-04-17T11:16:48.807Z,97607.22
2023-04-17T11:18:52.082Z,97605.50
2023-04-17T11:20:54.640Z,97609.03
2023-04-17T11:22:58.029Z,97602.06
2023-04-17T11:25:00.626Z,97605.66
2023-04-17T11:27:04.670Z,97603.81
2023-04-17T11:29:14.862Z,97608.16
2023-04-17T11:31:19.835Z,97603.75
2023-04-17T11:33:24.922Z,97608.91
2023-04-17T11:35:32.145Z,97602.69
2023-04-17T11:37:36.862Z,97609.34
2023-04-17T11:39:43.197Z,97601.53
2023-04-17T11:41:46.433Z,97608.44
2023-04-17T11:43:52.106Z,97603.19
2023-04-17T11:45:56.398Z,97605.63
2023-04-17T11:47:59.142Z,97606.66
2023-04-17T11:50:03.334Z,97611.91
2023-04-17T11:52:06.991Z,97610.78
2023-04-17T11:54:09.997Z,97607.25
2023-04-17T11:56:14.979Z,97619.94
2023-04-17T11:58:17.573Z,97618.25
2023-04-17T12:00:26.026Z,97620.84
2023-04-17T12:02:34.035Z,97610.38
2023-04-17T12:04:38.083Z,97612.13
2023-04-17T12:06:42.130Z,97611.94
2023-04-17T12:08:47.896Z,97608.59
2023-04-17T12:10:50.675Z,97608.59
2023-04-17T12:12:53.186Z,97609.44
2023-04-17T12:14:55.763Z,97613.63
2023-04-17T12:16:58.462Z,97609.16
2023-04-17T12:19:01.033Z,97602.03
2023-04-17T12:21:03.665Z,97601.81
2023-04-17T12:23:07.703Z,97603.34
2023-04-17T12:25:10.537Z,97606.78
2023-04-17T12:27:13.117Z,97604.00
2023-04-17T12:29:16.231Z,97604.00
2023-04-17T12:31:18.807Z,97600.28
2023-04-17T12:33:21.355Z,97591.38
2023-04-17T12:35:24.782Z,97595.44
2023-04-17T12:37:27.373Z,97591.47
2023-04-17T12:39:32.629Z,97594.06
2023-04-17T12:41:35.270Z,97591.81
2023-04-17T12:43:38.205Z,97587.78
2023-04-17T12:45:45.683Z,97585.09
2023-04-17T12:47:48.459Z,97580.97
2023-04-17T12:49:51.051Z,97572.75
2023-04-17T12:51:53.743Z,97574.28
2023-04-17T12:53:56.852Z,97570.94
2023-04-17T12:56:00.791Z,97570.88
2023-04-17T12:58:03.324Z,97572.66
2023-04-17T13:00:07.893Z,97574.19
2023-04-17T13:02:10.614Z,97564.13
2023-04-17T13:04:14.143Z,97556.34
2023-04-17T13:06:16.975Z,97573.16
2023-04-17T13:08:19.549Z,97560.38
2023-04-17T13:10:22.513Z,97563.97
2023-04-17T13:12:26.888Z,97559.41
2023-04-17T13:14:29.427Z,97550.03
2023-04-17T13:16:32.061Z,97556.16
2023-04-17T13:18:34.683Z,97561.25
2023-04-17T13:20:37.209Z,97563.38
2023-04-17T13:22:40.211Z,97575.78
2023-04-17T13:24:42.761Z,97563.59
2023-04-17T13:26:45.627Z,97571.28
2023-04-17T13:28:49.539Z,97569.59
2023-04-17T13:30:52.940Z,97571.34
2023-04-17T13:32:55.712Z,97568.44
2023-04-17T13:34:58.875Z,97569.22
2023-04-17T13:37:01.714Z,97572.34
2023-04-17T13:39:05.206Z,97565.78
2023-04-17T13:41:07.813Z,97562.66
2023-04-17T13:43:10.517Z,97558.50
2023-04-17T13:45:14.414Z,97562.16
2023-04-17T13:47:16.938Z,97557.94
2023-04-17T13:49:20.362Z,97564.25
2023-04-17T13:51:23.183Z,97553.56
2023-04-17T13:53:25.784Z,97567.72
2023-04-17T13:55:28.378Z,97567.13
2023-04-17T13:57:30.926Z,97559.47
2023-04-17T13:59:33.551Z,97555.19
2023-04-17T14:01:37.613Z,97558.66
2023-04-17T14:03:43.048Z,97559.28
2023-04-17T14:05:47.290Z,97546.59
2023-04-17T14:07:49.852Z,97545.91
2023-04-17T14:09:52.427Z,97536.66
2023-04-17T14:11:54.955Z,97539.81
2023-04-17T14:13:57.503Z,97551.25
2023-04-17T14:16:00.195Z,97542.63
2023-04-17T14:18:04.162Z,97541.28
2023-04-17T14:20:08.307Z,97540.44
2023-04-17T14:22:10.838Z,97542.72
2023-04-17T14:24:13.382Z,97536.13
2023-04-17T14:26:15.959Z,97537.03
2023-04-17T14:28:18.880Z,97541.28
2023-04-17T14:30:23.886Z,97533.28
2023-04-17T14:32:26.456Z,97542.78
2023-04-17T14:34:30.381Z,97545.53
2023-04-17T14:36:34.782Z,97536.91
2023-04-17T14:38:37.349Z,97539.88
2023-04-17T14:40:39.948Z,97543.06
2023-04-17T14:42:53.617Z,97541.78
2023-04-17T14:44:57.242Z,97539.16
2023-04-17T14:46:59.842Z,97533.63
2023-04-17T14:49:02.485Z,97535.75
2023-04-17T14:51:10.112Z,97534.03
2023-04-17T14:53:12.683Z,97540.41
2023-04-17T14:55:15.419Z,97539.94
2023-04-17T14:57:17.984Z,97545.75
2023-04-17T14:59:20.715Z,97546.84
2023-04-17T15:01:23.361Z,97548.81
2023-04-17T15:03:26.151Z,97548.00
2023-04-17T15:05:28.824Z,97546.78
2023-04-17T15:07:32.727Z,97547.47
2023-04-17T15:09:35.424Z,97550.06
2023-04-17T15:11:38.126Z,97547.41
2023-04-17T15:13:40.930Z,97546.50
2023-04-17T15:15:43.484Z,97540.69
2023-04-17T15:17:46.096Z,97541.97
2023-04-17T15:19:48.694Z,97536.22
2023-04-17T15:21:51.241Z,97548.50
2023-04-17T15:23:55.122Z,97551.13
2023-04-17T15:25:58.343Z,97546.66
2023-04-17T15:28:00.922Z,97542.81
2023-04-17T15:30:06.570Z,97552.16
2023-04-17T15:32:09.165Z,97551.47
2023-04-17T15:34:13.468Z,97552.19
2023-04-17T15:36:16.183Z,97547.81
2023-04-17T15:38:19.066Z,97556.50
2023-04-17T15:40:23.404Z,97549.50
2023-04-17T15:42:27.122Z,97549.47
2023-04-17T15:44:30.042Z,97548.44
2023-04-17T15:46:32.676Z,97550.91
2023-04-17T15:48:35.260Z,97549.69
2023-04-17T15:50:38.119Z,97552.66
2023-04-17T15:52:41.147Z,97543.44
2023-04-17T15:54:43.699Z,97549.16
2023-04-17T15:56:47.640Z,97552.09
2023-04-17T15:58:50.161Z,97559.44
2023-04-17T16:00:52.706Z,97553.69
2023-04-17T16:02:55.421Z,97556.56
2023-04-17T16:04:58.066Z,97547.28
2023-04-17T16:07:01.236Z,97549.09
2023-04-17T16:09:04.470Z,97546.63
2023-04-17T16:11:07.023Z,97551.13
2023-04-17T16:13:10.915Z,97550.41
2023-04-17T16:15:16.200Z,97555.91
2023-04-17T16:17:18.824Z,97548.31
2023-04-17T16:19:21.396Z,97549.25
2023-04-17T16:21:24.071Z,97552.09
2023-04-17T16:23:26.627Z,97550.47
2023-04-17T16:25:29.155Z,97546.28
2023-04-17T16:27:33.581Z,97551.63
2023-04-17T16:29:37.466Z,97557.84
2023-04-17T16:31:40.156Z,97551.94
2023-04-17T16:33:42.830Z,97551.13
2023-04-17T16:35:45.405Z,97551.16
2023-04-17T16:37:47.957Z,97553.00
2023-04-17T16:39:51.068Z,97545.16
2023-04-17T16:41:53.614Z,97548.66
2023-04-17T16:43:56.143Z,97545.19
2023-04-17T16:46:03.305Z,97538.34
2023-04-17T16:48:11.350Z,97551.56
2023-04-17T16:50:14.068Z,97543.63
2023-04-17T16:52:16.856Z,97546.19
2023-04-17T16:54:21.478Z,97547.16
2023-04-17T16:56:24.033Z,97548.06
2023-04-17T16:58:26.792Z,97552.44
2023-04-17T17:00:29.378Z,97547.34
2023-04-17T17:02:33.363Z,97552.50
2023-04-17T17:04:36.058Z,97556.13
2023-04-17T17:06:38.634Z,97550.97
2023-04-17T17:08:45.583Z,97566.59
2023-04-17T17:10:49.499Z,97557.13
2023-04-17T17:12:52.035Z,97553.53
2023-04-17T17:14:54.796Z,97553.72
2023-04-17T17:16:57.470Z,97562.50
2023-04-17T17:19:01.530Z,97560.78
2023-04-17T17:21:04.810Z,97566.06
2023-04-17T17:23:07.530Z,97560.03
2023-04-17T17:25:10.569Z,97561.75
2023-04-17T17:27:13.932Z,97575.00
2023-04-17T17:29:16.511Z,97569.84
2023-04-17T17:31:19.205Z,97570.88
2023-04-17T17:33:21.836Z,97578.03
2023-04-17T17:35:25.936Z,97576.38
2023-04-17T17:37:28.501Z,97588.75
2023-04-17T17:39:31.047Z,97593.72
2023-04-17T17:41:33.630Z,97591.09
2023-04-17T17:43:36.187Z,97592.72
2023-04-17T17:45:38.887Z,97598.22
2023-04-17T17:47:41.479Z,97603.50
2023-04-17T17:49:44.078Z,97606.19
2023-04-17T17:51:47.962Z,97603.63
2023-04-17T17:53:50.539Z,97606.59
2023-04-17T17:55:53.826Z,97608.75
2023-04-17T17:57:56.444Z,97605.47
2023-04-17T17:59:59.120Z,97605.63
2023-04-17T18:02:02.509Z,97606.06
2023-04-17T18:04:06.769Z,97614.94
2023-04-17T18:06:09.833Z,97612.53
2023-04-17T18:08:14.132Z,97609.91
2023-04-17T18:10:16.876Z,97608.38
2023-04-17T18:12:19.457Z,97597.19
2023-04-17T18:14:21.964Z,97599.03
2023-04-17T18:16:25.586Z,97597.47
2023-04-17T18:18:28.176Z,97604.56
2023-04-17T18:20:30.762Z,97605.59
2023-04-17T18:22:33.294Z,97607.47
2023-04-17T18:24:37.453Z,97610.25
2023-04-17T18:26:40.007Z,97609.56
2023-04-17T18:28:42.793Z,97609.69
2023-04-17T18:30:45.336Z,97613.28
2023-04-17T18:32:47.969Z,97606.31
2023-04-17T18:34:51.262Z,97601.06
2023-04-17T18:36:54.460Z,97604.59
2023-04-17T18:38:57.011Z,97615.97
2023-04-17T18:41:01.129Z,97615.06
2023-04-17T18:43:05.996Z,97615.13
2023-04-17T18:45:09.777Z,97623.84
2023-04-17T18:47:12.388Z,97621.34
2023-04-17T18:49:15.000Z,97629.22
2023-04-17T18:51:17.661Z,97630.16
2023-04-17T18:53:20.202Z,97626.72
2023-04-17T18:55:23.488Z,97624.09
2023-04-17T18:57:27.491Z,97629.22
2023-04-17T18:59:30.335Z,97632.81
2023-04-17T19:01:32.868Z,97627.75
2023-04-17T19:03:35.432Z,97627.72
2023-04-17T19:05:38.050Z,97628.56
2023-04-17T19:07:40.799Z,97627.72
2023-04-17T19:09:44.697Z,97619.94
2023-04-17T19:11:47.242Z,97625.97
2023-04-17T19:13:51.265Z,97619.84
2023-04-17T19:15:53.888Z,97620.81
2023-04-17T19:17:56.879Z,97620.88
2023-04-17T19:19:59.487Z,97626.09
2023-04-17T19:22:02.010Z,97628.69
2023-04-17T19:24:05.054Z,97631.38
2023-04-17T19:26:09.133Z,97633.13
2023-04-17T19:28:13.274Z,97628.81
2023-04-17T19:30:17.286Z,97626.19
2023-04-17T19:32:19.920Z,97621.94
2023-04-17T19:34:22.443Z,97627.13
2023-04-17T19:36:27.372Z,97621.97
2023-04-17T19:38:31.120Z,97625.56
2023-04-17T19:40:33.792Z,97627.25
2023-04-17T19:42:36.347Z,97629.06
2023-04-17T19:44:38.879Z,97624.69
2023-04-17T19:46:42.856Z,97629.06
2023-04-17T19:48:46.557Z,97625.66
2023-04-17T19:50:49.135Z,97634.38
2023-04-17T19:52:51.833Z,97639.56
2023-04-17T19:54:54.506Z,97631.81
2023-04-17T19:56:57.029Z,97630.06
2023-04-17T19:59:02.615Z,97627.47
2023-04-17T20:01:05.490Z,97624.03
2023-04-17T20:03:09.545Z,97624.91
2023-04-17T20:05:12.145Z,97628.38
2023-04-17T20:07:14.760Z,97624.09
2023-04-17T20:09:18.189Z,97624.03
2023-04-17T20:11:20.902Z,97624.91
2023-04-17T20:13:23.436Z,97623.19
2023-04-17T20:15:25.959Z,97620.56
2023-04-17T20:17:28.632Z,97620.66
2023-04-17T20:19:33.328Z,97616.34
2023-04-17T20:21:35.865Z,97622.50
2023-04-17T20:23:38.418Z,97625.03
2023-04-17T20:25:40.964Z,97620.88
2023-04-17T20:27:43.500Z,97617.50
2023-04-17T20:29:46.104Z,97620.13
2023-04-17T20:31:48.821Z,97618.31
2023-04-17T20:33:51.445Z,97615.72
2023-04-17T20:35:57.418Z,97612.16
2023-04-17T20:38:00.321Z,97623.47
2023-04-17T20:40:03.284Z,97618.25
2023-04-17T20:42:05.980Z,97610.44
2023-04-17T20:44:09.412Z,97615.75
2023-04-17T20:46:11.991Z,97618.38
2023-04-17T20:48:14.690Z,97610.53
2023-04-17T20:50:17.348Z,97610.59
2023-04-17T20:52:21.263Z,97605.38
2023-04-17T20:54:26.116Z,97601.13
2023-04-17T20:56:28.678Z,97610.66
2023-04-17T20:58:31.268Z,97602.72
2023-04-17T21:00:34.639Z,97607.94
2023-04-17T21:02:37.276Z,97605.34
2023-04-17T21:04:39.977Z,97600.13
2023-04-17T21:06:42.519Z,97597.56
2023-04-17T21:08:46.419Z,97601.03
2023-04-17T21:10:48.970Z,97603.59
2023-04-17T21:12:51.474Z,97600.06
2023-04-17T21:14:54.032Z,97596.66
2023-04-17T21:16:58.471Z,97590.72
2023-04-17T21:19:01.038Z,97588.19
2023-04-17T21:21:07.201Z,97587.28
2023-04-17T21:23:09.745Z,97588.19
2023-04-17T21:25:13.661Z,97594.25
2023-04-17T21:27:16.232Z,97596.09
2023-04-17T21:29:18.819Z,97593.44
2023-04-17T21:31:21.394Z,97590.13
2023-04-17T21:33:23.930Z,97591.03
2023-04-17T21:35:27.103Z,97594.47
2023-04-17T21:37:29.654Z,97597.09
2023-04-17T21:39:33.236Z,97597.13
2023-04-17T21:41:38.046Z,97598.94
2023-04-17T21:43:40.605Z,97590.34
2023-04-17T21:45:43.167Z,97592.09
2023-04-17T21:47:45.757Z,97598.28
2023-04-17T21:49:48.404Z,97598.31
2023-04-17T21:51:51.007Z,97586.13
2023-04-17T21:53:53.583Z,97593.16
2023-04-17T21:55:56.456Z,97586.22
2023-04-17T21:58:00.471Z,97588.81
2023-04-17T22:00:03.515Z,97587.97
2023-04-17T22:02:06.054Z,97582.75
2023-04-17T22:04:08.630Z,97583.59
2023-04-17T22:06:11.396Z,97585.34
2023-04-17T22:08:13.938Z,97590.63
2023-04-17T22:10:16.505Z,97580.25
2023-04-17T22:12:20.565Z,97582.78
2023-04-17T22:14:26.914Z,97581.06
2023-04-17T22:16:32.243Z,97578.56
2023-04-17T22:18:34.829Z,97583.78
2023-04-17T22:20:37.828Z,97574.28
2023-04-17T22:22:40.383Z,97570.84
2023-04-17T22:24:43.505Z,97566.63
2023-04-17T22:26:46.348Z,97572.75
2023-04-17T22:28:48.939Z,97574.63
2023-04-17T22:30:52.828Z,97574.63
2023-04-17T22:32:56.503Z,97576.28
2023-04-17T22:34:59.312Z,97573.69
2023-04-17T22:37:01.873Z,97575.53
2023-04-17T22:39:04.576Z,97570.25
2023-04-17T22:41:07.109Z,97568.63
2023-04-17T22:43:09.832Z,97568.72
2023-04-17T22:45:12.488Z,97562.75
2023-04-17T22:47:17.660Z,97568.84
2023-04-17T22:49:20.229Z,97569.81
2023-04-17T22:51:23.912Z,97570.63
2023-04-17T22:53:26.449Z,97575.00
2023-04-17T22:55:28.984Z,97573.47
2023-04-17T22:57:31.514Z,97569.16
2023-04-17T22:59:34.044Z,97572.63
2023-04-17T23:01:36.672Z,97579.56
2023-04-17T23:03:40.623Z,97572.63
2023-04-17T23:05:43.238Z,97576.09
2023-04-17T23:07:45.814Z,97576.09
2023-04-17T23:09:48.388Z,97574.28
2023-04-17T23:11:51.153Z,97569.16
2023-04-17T23:13:53.678Z,97578.78
2023-04-17T23:15:56.247Z,97577.88
2023-04-17T23:17:58.966Z,97572.63
2023-04-17T23:20:03.985Z,97570.88
2023-04-17T23:22:07.405Z,97571.75
2023-04-17T23:24:10.227Z,97568.38
2023-04-17T23:26:14.773Z,97565.78
2023-04-17T23:28:17.646Z,97563.19
2023-04-17T23:30:20.386Z,97561.44
2023-04-17T23:32:23.111Z,97560.56
2023-04-17T23:34:26.930Z,97557.94
2023-04-17T23:36:31.622Z,97552.75
2023-04-17T23:38:34.198Z,97556.22
2023-04-17T23:40:36.759Z,97555.38
2023-04-17T23:42:39.271Z,97557.97
2023-04-17T23:44:41.809Z,97557.13
2023-04-17T23:46:44.401Z,97557.19
2023-04-17T23:48:49.852Z,97548.50
2023-04-17T23:50:52.520Z,97549.44
2023-04-17T23:52:56.388Z,97552.03
2023-04-17T23:54:58.968Z,97550.34
2023-04-17T23:57:02.013Z,97549.50
2023-04-17T23:59:04.577Z,97546.06
